Time;durP1;ratioP1;P1;durP2;ratioP2;P2;SDS_P1;SDS_P2;PMS_P1;PMS_P2;Temp;Humidity;BMP_temperature;BMP_pressure;BME280_temperature;BME280_humidity;BME280_pressure;Samples;Min_cycle;Max_cycle;Signal;HPM_P1;HPM_P2
2022/07/15 00:00:10;;;;;;;0.10;0.10;;;;;;;21.99;53.30;101795.22;5113147;28;21887;-37
2022/07/15 00:02:37;;;;;;;0.10;0.10;;;;;;;22.01;53.38;101803.25;5115123;28;20120;-37
2022/07/15 00:05:05;;;;;;;0.10;0.10;;;;;;;22.01;53.37;101803.25;5117798;28;20504;-37
2022/07/15 00:07:31;;;;;;;0.10;0.10;;;;;;;22.01;53.37;101803.25;5094391;28;20051;-38
2022/07/15 00:10:27;;;;;;;0.10;0.10;;;;;;;22.00;53.44;101793.28;5114536;28;20093;-37
2022/07/15 00:12:46;;;;;;;0.10;0.10;;;;;;;22.00;53.45;101796.06;5102628;28;20044;-37
2022/07/15 00:15:12;;;;;;;0.10;0.10;;;;;;;22.00;53.37;101799.66;5117407;28;20482;-38
2022/07/15 00:17:38;;;;;;;0.10;0.10;;;;;;;22.00;53.32;101798.81;5114215;28;20598;-36
2022/07/15 00:20:05;;;;;;;0.10;0.10;;;;;;;22.01;53.41;101801.31;5116180;28;20126;-38
2022/07/15 00:22:31;;;;;;;0.10;0.10;;;;;;;22.00;53.41;101794.09;5112988;28;20335;-37
2022/07/15 00:24:57;;;;;;;0.20;0.20;;;;;;;22.00;53.46;101799.66;5115889;28;20467;-37
2022/07/15 00:27:23;;;;;;;0.10;0.10;;;;;;;22.01;53.47;101792.16;5095002;28;20189;-38
2022/07/15 00:29:50;;;;;;;0.13;0.13;;;;;;;22.02;53.46;101797.44;5120045;28;20071;-37
2022/07/15 00:32:16;;;;;;;0.10;0.10;;;;;;;22.01;53.46;101789.38;5100925;28;21226;-37
2022/07/15 00:34:42;;;;;;;0.10;0.10;;;;;;;21.99;53.39;101792.44;5114772;28;21245;-37
2022/07/15 00:37:08;;;;;;;0.10;0.10;;;;;;;22.00;53.40;101790.50;5101091;28;20724;-36
2022/07/15 00:39:34;;;;;;;0.10;0.10;;;;;;;22.00;53.31;101796.06;5098175;28;20146;-38
2022/07/15 00:42:00;;;;;;;0.10;0.10;;;;;;;21.99;53.44;101795.22;5096675;28;20039;-38
2022/07/15 00:44:25;;;;;;;0.10;0.10;;;;;;;22.00;53.39;101790.50;5096624;28;20488;-37
2022/07/15 00:46:52;;;;;;;0.10;0.10;;;;;;;22.00;53.42;101791.34;5110023;28;20054;-37
2022/07/15 00:49:18;;;;;;;0.10;0.10;;;;;;;22.00;53.48;101793.28;5112585;28;20466;-38
2022/07/15 00:51:47;;;;;;;0.10;0.10;;;;;;;22.00;53.38;101793.28;5096871;28;20567;-38
2022/07/15 00:54:14;;;;;;;0.20;0.20;;;;;;;22.00;53.51;101791.34;5101571;28;20068;-37
2022/07/15 00:56:42;;;;;;;0.10;0.10;;;;;;;22.01;53.63;101800.47;5112030;28;20063;-38
2022/07/15 00:59:08;;;;;;;0.10;0.10;;;;;;;22.00;53.42;101796.88;5098845;28;20461;-37
2022/07/15 01:01:35;;;;;;;0.10;0.10;;;;;;;22.00;53.39;101796.88;5118885;28;20059;-37
2022/07/15 01:04:04;;;;;;;0.10;0.10;;;;;;;22.01;53.49;101803.25;5117923;28;20039;-37
2022/07/15 01:06:30;;;;;;;0.10;0.10;;;;;;;22.00;53.36;101798.81;5102355;28;20138;-37
2022/07/15 01:08:55;;;;;;;0.10;0.10;;;;;;;22.01;53.44;101797.72;5115749;28;20066;-37
2022/07/15 01:11:21;;;;;;;0.10;0.10;;;;;;;22.00;53.46;101798.81;5114544;28;20043;-37
2022/07/15 01:13:47;;;;;;;0.10;0.10;;;;;;;22.00;53.45;101809.94;5116374;28;20047;-38
2022/07/15 01:16:12;;;;;;;0.10;0.10;;;;;;;22.01;53.49;101804.09;5116685;28;20051;-37
2022/07/15 01:18:38;;;;;;;0.10;0.10;;;;;;;22.00;53.43;101809.94;5117023;28;20043;-35
2022/07/15 01:21:04;;;;;;;0.10;0.10;;;;;;;22.00;53.56;101802.44;5115479;28;20393;-38
2022/07/15 01:23:30;;;;;;;0.10;0.10;;;;;;;22.00;53.39;101804.38;5117144;28;20040;-37
2022/07/15 01:25:55;;;;;;;0.10;0.10;;;;;;;22.01;53.58;101800.47;5116083;28;20044;-37
2022/07/15 01:28:21;;;;;;;0.10;0.10;;;;;;;22.00;53.37;101801.59;5098437;28;20046;-37
2022/07/15 01:30:47;;;;;;;0.10;0.10;;;;;;;22.00;53.31;101807.97;5114982;28;20058;-38
2022/07/15 01:33:13;;;;;;;0.10;0.10;;;;;;;22.00;53.58;101810.75;5116714;28;20043;-37
2022/07/15 01:35:39;;;;;;;0.10;0.10;;;;;;;22.01;53.29;101815.19;5098657;28;20051;-38
2022/07/15 01:38:05;;;;;;;0.10;0.10;;;;;;;22.00;53.59;101804.38;5093642;28;20043;-36
2022/07/15 01:40:31;;;;;;;0.10;0.10;;;;;;;22.00;53.39;101809.94;5115256;28;20586;-37
2022/07/15 01:42:56;;;;;;;0.10;0.10;;;;;;;21.99;53.52;101814.63;5113516;28;20402;-37
2022/07/15 01:45:22;;;;;;;0.10;0.10;;;;;;;22.01;53.60;101814.34;5119765;28;20047;-36
2022/07/15 01:47:49;;;;;;;0.10;0.10;;;;;;;22.00;53.42;101809.94;5112853;28;20051;-39
2022/07/15 01:50:15;;;;;;;0.10;0.10;;;;;;;22.00;53.53;101819.06;5112196;28;20184;-38
2022/07/15 01:52:41;;;;;;;0.10;0.10;;;;;;;21.99;53.69;101814.63;5096701;28;20501;-39
2022/07/15 01:55:08;;;;;;;0.10;0.10;;;;;;;22.00;53.46;101815.47;5096934;28;20055;-38
2022/07/15 01:57:34;;;;;;;0.10;0.10;;;;;;;22.00;53.53;101815.47;5094658;28;20067;-38
2022/07/15 02:00:00;;;;;;;0.10;0.10;;;;;;;22.00;53.31;101812.69;5098280;28;20489;-37
2022/07/15 02:02:26;;;;;;;0.10;0.10;;;;;;;22.00;53.55;101816.28;5078900;28;20067;-36
2022/07/15 02:04:52;;;;;;;0.10;0.10;;;;;;;22.00;53.47;101816.28;5113232;28;20048;-37
2022/07/15 02:07:17;;;;;;;0.10;0.10;;;;;;;22.00;53.35;101807.16;5091983;28;20047;-38
2022/07/15 02:09:43;;;;;;;0.10;0.10;;;;;;;22.00;53.47;101815.47;5082306;28;20036;-38
2022/07/15 02:12:09;;;;;;;0.10;0.10;;;;;;;22.00;53.45;101816.28;5116236;28;20039;-37
2022/07/15 02:14:34;;;;;;;0.10;0.10;;;;;;;22.00;53.38;101816.28;5116923;28;20036;-37
2022/07/15 02:17:01;;;;;;;0.10;0.10;;;;;;;22.00;53.54;101810.75;5095139;28;20044;-38
2022/07/15 02:19:27;;;;;;;0.10;0.10;;;;;;;22.00;53.47;101818.25;5098584;28;20493;-39
2022/07/15 02:21:53;;;;;;;0.10;0.10;;;;;;;22.00;53.38;101815.47;5107695;28;20047;-37
2022/07/15 02:24:19;;;;;;;0.10;0.10;;;;;;;22.00;53.36;101815.47;5115322;28;20432;-37
2022/07/15 02:26:45;;;;;;;0.10;0.10;;;;;;;22.00;53.56;101819.06;5114474;28;20050;-39
2022/07/15 02:29:12;;;;;;;0.10;0.10;;;;;;;22.00;53.60;101807.97;5111195;28;20044;-38
2022/07/15 02:31:37;;;;;;;0.10;0.10;;;;;;;22.00;53.46;101809.94;5097552;28;20067;-38
2022/07/15 02:34:04;;;;;;;0.10;0.10;;;;;;;22.00;53.37;101815.47;5117925;28;20082;-37
2022/07/15 02:36:30;;;;;;;0.10;0.10;;;;;;;22.00;53.39;101810.75;5116761;28;20726;-37
2022/07/15 02:38:56;;;;;;;0.10;0.10;;;;;;;21.99;53.44;101806.31;5114857;28;20043;-37
2022/07/15 02:41:21;;;;;;;0.10;0.10;;;;;;;22.01;53.52;101814.34;5100228;28;20067;-37
2022/07/15 02:43:48;;;;;;;0.10;0.10;;;;;;;22.01;53.43;101817.13;5113235;28;20043;-37
2022/07/15 02:46:14;;;;;;;0.10;0.10;;;;;;;22.00;53.56;101823.78;5117936;28;20149;-38
2022/07/15 02:48:40;;;;;;;0.10;0.10;;;;;;;22.00;53.47;101810.75;5102527;28;20066;-38
2022/07/15 02:51:06;;;;;;;0.10;0.10;;;;;;;22.00;53.43;101821.03;5122252;28;20526;-39
2022/07/15 02:53:32;;;;;;;0.10;0.10;;;;;;;21.99;53.48;101820.19;5120263;28;20070;-39
2022/07/15 02:55:58;;;;;;;0.10;0.10;;;;;;;22.00;53.56;101826.56;5116754;28;20085;-37
2022/07/15 02:58:25;;;;;;;0.10;0.10;;;;;;;22.00;53.48;101827.38;5114647;28;20071;-38
2022/07/15 03:00:51;;;;;;;0.10;0.10;;;;;;;22.00;53.55;101827.38;5119766;28;20441;-37
2022/07/15 03:03:17;;;;;;;0.10;0.10;;;;;;;22.00;53.45;101827.38;5119794;28;20039;-38
2022/07/15 03:05:42;;;;;;;0.10;0.10;;;;;;;22.00;53.42;101835.72;5114318;28;20074;-37
2022/07/15 03:08:08;;;;;;;0.10;0.10;;;;;;;22.00;53.34;101841.25;5103573;28;20046;-36
2022/07/15 03:10:34;;;;;;;0.10;0.10;;;;;;;22.00;53.43;101832.13;5097860;28;20626;-38
2022/07/15 03:13:00;;;;;;;0.10;0.10;;;;;;;21.99;53.57;101831.28;5120700;28;20048;-38
2022/07/15 03:15:26;;;;;;;0.10;0.10;;;;;;;22.00;53.47;101838.50;5120954;28;20051;-37
2022/07/15 03:17:51;;;;;;;0.10;0.10;;;;;;;22.00;53.44;101841.25;5118869;28;20579;-38
2022/07/15 03:20:17;;;;;;;0.10;0.10;;;;;;;22.00;53.52;101841.25;5120618;28;20087;-38
2022/07/15 03:22:43;;;;;;;0.10;0.10;;;;;;;22.01;53.64;101847.63;5117895;28;20040;-38
2022/07/15 03:25:08;;;;;;;0.10;0.10;;;;;;;22.00;53.64;101855.13;5122250;28;20043;-38
2022/07/15 03:27:34;;;;;;;0.10;0.10;;;;;;;22.00;53.51;101851.53;5113293;28;20048;-38
2022/07/15 03:30:00;;;;;;;0.10;0.10;;;;;;;22.01;53.51;101855.97;5119165;28;20051;-38
2022/07/15 03:32:26;;;;;;;0.10;0.10;;;;;;;22.00;53.62;101854.31;5094247;28;20067;-36
2022/07/15 03:34:52;;;;;;;0.10;0.10;;;;;;;21.99;53.67;101850.69;5118185;28;20138;-39
2022/07/15 03:37:18;;;;;;;0.10;0.10;;;;;;;22.00;53.43;101857.06;5120941;28;20085;-38
2022/07/15 03:39:44;;;;;;;0.10;0.10;;;;;;;22.01;53.39;101861.50;5120147;28;20046;-37
2022/07/15 03:42:10;;;;;;;0.10;0.10;;;;;;;22.01;53.54;101867.06;5113249;28;20096;-37
2022/07/15 03:44:35;;;;;;;0.10;0.10;;;;;;;22.00;53.55;101863.44;5118782;28;20042;-36
2022/07/15 03:47:01;;;;;;;0.10;0.10;;;;;;;22.00;53.66;101869.00;5097357;28;20047;-38
2022/07/15 03:49:27;;;;;;;0.10;0.10;;;;;;;22.01;53.49;101872.59;5101119;28;20039;-37
2022/07/15 03:51:53;;;;;;;0.10;0.10;;;;;;;22.00;53.52;101873.72;5102725;28;20093;-39
2022/07/15 03:54:19;;;;;;;0.10;0.10;;;;;;;22.00;53.53;101879.25;5118429;28;20458;-39
2022/07/15 03:56:47;;;;;;;0.10;0.10;;;;;;;22.00;53.42;101877.31;5113898;28;20055;-39
2022/07/15 03:59:14;;;;;;;0.10;0.10;;;;;;;22.00;53.60;101876.50;5118006;28;20071;-39
2022/07/15 04:01:40;;;;;;;0.10;0.10;;;;;;;22.00;53.53;101882.88;5118069;28;20095;-37
2022/07/15 04:04:06;;;;;;;0.10;0.10;;;;;;;22.00;53.41;101880.09;5115730;28;20047;-37
2022/07/15 04:06:32;;;;;;;0.10;0.10;;;;;;;22.00;53.55;101884.81;5118069;28;20251;-39
2022/07/15 04:08:58;;;;;;;0.10;0.10;;;;;;;21.99;53.43;101883.97;5117599;28;20066;-37
2022/07/15 04:11:24;;;;;;;0.10;0.10;;;;;;;22.00;53.51;101888.41;5113769;28;20051;-36
2022/07/15 04:13:49;;;;;;;0.10;0.10;;;;;;;22.00;53.50;101893.13;5117166;28;20375;-37
2022/07/15 04:16:15;;;;;;;0.10;0.10;;;;;;;22.01;53.35;101889.25;5115623;28;20484;-37
2022/07/15 04:18:41;;;;;;;0.10;0.10;;;;;;;22.00;53.50;101891.19;5120000;28;20050;-37
2022/07/15 04:21:07;;;;;;;0.10;0.10;;;;;;;22.01;53.49;101892.84;5121713;28;20036;-37
2022/07/15 04:23:33;;;;;;;0.10;0.10;;;;;;;22.01;53.44;101892.00;5103857;28;20062;-37
2022/07/15 04:25:59;;;;;;;0.10;0.10;;;;;;;22.01;53.55;101900.34;5097879;28;20084;-37
2022/07/15 04:28:25;;;;;;;0.10;0.10;;;;;;;22.01;53.63;101900.34;5096992;28;20086;-37
2022/07/15 04:30:51;;;;;;;0.10;0.10;;;;;;;22.01;53.45;101905.88;5116843;28;20043;-37
2022/07/15 04:33:17;;;;;;;0.10;0.10;;;;;;;22.01;53.53;101905.88;5119479;28;20089;-38
2022/07/15 04:35:43;;;;;;;0.10;0.10;;;;;;;22.00;53.51;101902.28;5116737;28;20050;-40
2022/07/15 04:38:09;;;;;;;0.10;0.10;;;;;;;22.00;53.51;101912.56;5094532;28;20082;-37
2022/07/15 04:40:35;;;;;;;0.10;0.10;;;;;;;22.00;53.69;101918.09;5123018;28;20070;-38
2022/07/15 04:43:01;;;;;;;0.10;0.10;;;;;;;22.00;53.50;101916.16;5116120;28;20049;-37
2022/07/15 04:45:27;;;;;;;0.10;0.10;;;;;;;22.01;53.45;101922.53;5096879;28;20135;-38
2022/07/15 04:47:53;;;;;;;0.10;0.10;;;;;;;22.00;53.56;101918.91;5095349;28;20074;-37
2022/07/15 04:53:05;;;;;;;0.10;0.10;;;;;;;22.00;53.52;101926.41;5097329;28;20063;-39
2022/07/15 04:55:31;;;;;;;0.10;0.10;;;;;;;22.00;53.35;101927.25;5098577;28;20074;-37
2022/07/15 04:57:57;;;;;;;0.10;0.10;;;;;;;22.00;53.56;101924.47;5114267;28;20053;-37
2022/07/15 05:00:23;;;;;;;0.10;0.10;;;;;;;22.01;53.60;101926.13;5121535;28;20050;-38
2022/07/15 05:02:49;;;;;;;0.10;0.10;;;;;;;22.01;53.66;101928.06;5113792;28;20051;-38
2022/07/15 05:05:15;;;;;;;0.17;0.17;;;;;;;22.01;53.39;101930.84;5121117;28;20056;-36
2022/07/15 05:07:40;;;;;;;0.10;0.10;;;;;;;22.00;53.56;101927.25;5113021;28;20075;-37
2022/07/15 05:10:07;;;;;;;0.10;0.10;;;;;;;22.00;53.46;101921.69;5117728;28;20093;-39
2022/07/15 05:12:33;;;;;;;0.10;0.10;;;;;;;21.99;53.45;101931.13;5100510;28;20067;-39
2022/07/15 05:14:59;;;;;;;0.10;0.10;;;;;;;22.01;53.38;101925.31;5119012;28;20052;-37
2022/07/15 05:17:25;;;;;;;0.10;0.10;;;;;;;22.00;53.48;101938.34;5113822;28;20039;-37
2022/07/15 05:19:52;;;;;;;0.10;0.10;;;;;;;22.00;53.47;101932.78;5116688;28;20493;-37
2022/07/15 05:22:18;;;;;;;0.10;0.10;;;;;;;22.00;53.62;101926.41;5111985;28;20112;-37
2022/07/15 05:24:44;;;;;;;0.10;0.10;;;;;;;22.00;53.50;101929.19;5120577;28;20075;-37
2022/07/15 05:27:10;;;;;;;0.10;0.10;;;;;;;21.99;53.74;101925.59;5116752;28;20498;-37
2022/07/15 05:29:36;;;;;;;0.10;0.10;;;;;;;22.01;53.70;101928.06;5121698;28;20489;-38
2022/07/15 05:32:02;;;;;;;0.10;0.10;;;;;;;22.01;53.54;101928.06;5113524;28;20046;-37
2022/07/15 05:34:28;;;;;;;0.10;0.10;;;;;;;22.00;53.47;101930.03;5098994;28;20040;-37
2022/07/15 05:36:54;;;;;;;0.10;0.10;;;;;;;22.00;53.60;101930.03;5097419;28;20054;-38
2022/07/15 05:39:19;;;;;;;0.10;0.10;;;;;;;22.02;53.42;101926.97;5119784;28;20046;-39
2022/07/15 05:41:47;;;;;;;0.20;0.20;;;;;;;22.01;53.41;101923.34;5114473;28;20458;-39
2022/07/15 05:44:14;;;;;;;0.10;0.10;;;;;;;22.00;53.59;101937.50;5097050;28;20047;-37
2022/07/15 05:46:39;;;;;;;0.10;0.10;;;;;;;22.00;53.37;101935.56;5115998;28;20470;-37
2022/07/15 05:49:05;;;;;;;0.10;0.10;;;;;;;22.00;53.76;101930.03;5112572;28;20043;-37
2022/07/15 05:51:31;;;;;;;0.10;0.10;;;;;;;22.01;53.64;101922.53;5119680;28;20051;-38
2022/07/15 05:53:57;;;;;;;0.10;0.10;;;;;;;22.00;53.60;101924.47;5115535;28;20089;-38
2022/07/15 05:56:22;;;;;;;0.10;0.10;;;;;;;22.00;53.63;101927.25;5116451;28;20439;-38
2022/07/15 05:58:48;;;;;;;0.13;0.13;;;;;;;22.00;53.60;101927.25;5113376;28;20065;-38
2022/07/15 06:01:14;;;;;;;0.10;0.10;;;;;;;22.00;53.48;101926.41;5115219;28;20054;-37
2022/07/15 06:03:40;;;;;;;0.10;0.10;;;;;;;21.99;53.40;101925.59;5096781;28;20510;-37
2022/07/15 06:06:07;;;;;;;0.10;0.10;;;;;;;22.00;53.46;101929.19;5109943;28;20047;-38
2022/07/15 06:08:33;;;;;;;0.10;0.10;;;;;;;21.99;53.48;101931.13;5122317;28;20474;-37
2022/07/15 06:10:58;;;;;;;0.10;0.10;;;;;;;22.00;53.60;101932.78;5121761;28;20077;-38
2022/07/15 06:13:24;;;;;;;0.10;0.10;;;;;;;21.99;53.56;101939.47;5115353;28;20432;-37
2022/07/15 06:15:50;;;;;;;0.10;0.10;;;;;;;21.99;53.20;101936.69;5118221;28;20051;-38
2022/07/15 06:18:16;;;;;;;0.10;0.10;;;;;;;22.00;53.44;101931.97;5115270;28;20048;-38
2022/07/15 06:20:42;;;;;;;0.10;0.10;;;;;;;21.99;53.53;101931.13;5121455;28;20050;-38
2022/07/15 06:23:08;;;;;;;0.10;0.10;;;;;;;21.99;53.78;101927.53;5117960;28;20122;-37
2022/07/15 06:25:33;;;;;;;0.10;0.10;;;;;;;22.00;53.50;101930.03;5118172;28;20050;-37
2022/07/15 06:27:59;;;;;;;0.10;0.10;;;;;;;21.99;53.53;101924.75;5116116;28;20051;-36
2022/07/15 06:30:25;;;;;;;0.10;0.10;;;;;;;22.00;53.44;101937.50;5122537;28;20053;-37
2022/07/15 06:32:51;;;;;;;0.10;0.10;;;;;;;21.99;53.57;101933.91;5118330;28;20048;-39
2022/07/15 06:35:17;;;;;;;0.10;0.10;;;;;;;22.00;53.42;101932.78;5118702;28;20119;-37
2022/07/15 06:37:42;;;;;;;0.10;0.10;;;;;;;21.99;53.43;101931.13;5116977;28;20097;-38
2022/07/15 06:40:09;;;;;;;0.10;0.10;;;;;;;22.00;53.52;101932.78;5097953;28;20055;-38
2022/07/15 06:42:35;;;;;;;0.10;0.10;;;;;;;22.00;53.34;101929.19;5098883;28;20486;-39
2022/07/15 06:45:01;;;;;;;0.20;0.20;;;;;;;22.00;53.62;101931.97;5122381;28;20047;-38
2022/07/15 06:47:28;;;;;;;0.10;0.10;;;;;;;21.99;53.64;101928.34;5113515;28;20066;-38
2022/07/15 06:49:54;;;;;;;0.10;0.10;;;;;;;22.02;53.47;101935.28;5101648;28;20056;-38
2022/07/15 06:52:20;;;;;;;0.10;0.10;;;;;;;22.00;53.52;101929.19;5117820;28;20049;-38
2022/07/15 06:54:45;;;;;;;0.20;0.20;;;;;;;22.00;53.42;101931.97;5123752;28;20039;-38
2022/07/15 06:57:12;;;;;;;0.10;0.10;;;;;;;22.00;53.31;101931.97;5121909;28;20035;-37
2022/07/15 06:59:45;;;;;;;0.15;0.15;;;;;;;22.00;53.47;101932.78;5117754;28;20070;-37
2022/07/15 07:02:10;;;;;;;0.10;0.10;;;;;;;22.00;53.45;101926.41;5117270;28;20043;-38
2022/07/15 07:04:36;;;;;;;0.10;0.10;;;;;;;22.00;53.45;101931.97;5118394;28;20039;-37
2022/07/15 07:07:02;;;;;;;0.10;0.10;;;;;;;22.00;53.52;101934.75;5114238;28;20047;-38
2022/07/15 07:09:28;;;;;;;0.10;0.10;;;;;;;22.00;53.54;101934.75;5115049;28;20040;-39
2022/07/15 07:11:54;;;;;;;0.10;0.10;;;;;;;22.01;53.58;101934.44;5121190;28;20050;-38
2022/07/15 07:14:19;;;;;;;0.10;0.10;;;;;;;22.00;53.51;101935.56;5115632;28;20466;-35
2022/07/15 07:16:46;;;;;;;0.10;0.10;;;;;;;21.99;53.53;101931.13;5099782;28;20410;-38
2022/07/15 07:19:13;;;;;;;0.10;0.10;;;;;;;21.98;53.65;101943.34;5124409;27;20045;-38
2022/07/15 07:21:39;;;;;;;0.10;0.10;;;;;;;22.00;53.51;101941.13;5118019;28;20090;-39
2022/07/15 07:24:07;;;;;;;0.10;0.10;;;;;;;22.00;53.32;101943.06;5119144;28;20107;-38
2022/07/15 07:26:33;;;;;;;0.20;0.20;;;;;;;22.01;53.41;101939.16;5117962;28;20556;-37
2022/07/15 07:28:59;;;;;;;0.10;0.10;;;;;;;21.99;53.38;101941.41;5098928;28;20336;-38
2022/07/15 07:31:26;;;;;;;0.10;0.10;;;;;;;22.00;53.42;101951.38;5118078;28;20048;-38
2022/07/15 07:33:55;;;;;;;0.10;0.10;;;;;;;22.00;53.50;101943.06;5097543;28;20051;-38
2022/07/15 07:36:20;;;;;;;0.20;0.20;;;;;;;22.01;53.42;101947.50;5120417;28;20051;-37
2022/07/15 07:38:46;;;;;;;0.10;0.10;;;;;;;22.01;53.47;101945.53;5116224;28;20108;-37
2022/07/15 07:41:14;;;;;;;0.10;0.10;;;;;;;22.01;53.50;101944.72;5098725;28;20046;-37
2022/07/15 07:43:41;;;;;;;0.10;0.10;;;;;;;22.00;53.27;101946.66;5114948;28;20058;-38
2022/07/15 07:46:06;;;;;;;0.10;0.10;;;;;;;22.00;53.43;101941.13;5114218;28;20035;-38
2022/07/15 07:48:32;;;;;;;0.10;0.10;;;;;;;21.99;53.14;101945.00;5118908;28;20039;-37
2022/07/15 07:50:58;;;;;;;0.10;0.10;;;;;;;22.00;53.52;101937.50;5118591;28;20457;-38
2022/07/15 07:53:24;;;;;;;0.10;0.10;;;;;;;21.98;53.48;101943.34;5117311;28;20478;-38
2022/07/15 07:55:50;;;;;;;0.10;0.10;;;;;;;22.00;53.42;101940.28;5114728;28;20066;-38
2022/07/15 07:58:16;;;;;;;0.10;0.10;;;;;;;21.99;53.41;101935.84;5118482;28;20039;-38
2022/07/15 08:00:43;;;;;;;0.10;0.10;;;;;;;22.01;53.46;101939.16;5098992;28;20458;-37
2022/07/15 08:03:09;;;;;;;0.10;0.10;;;;;;;22.01;53.54;101944.72;5121143;28;20074;-39
2022/07/15 08:05:36;;;;;;;0.10;0.10;;;;;;;22.00;53.60;101938.34;5109781;28;20059;-37
2022/07/15 08:08:06;;;;;;;0.10;0.10;;;;;;;22.00;53.40;101943.06;5099725;28;20409;-38
2022/07/15 08:10:32;;;;;;;0.10;0.10;;;;;;;21.99;53.30;101939.47;5112245;28;20086;-38
2022/07/15 08:13:00;;;;;;;0.17;0.17;;;;;;;21.99;53.53;101939.47;5115496;28;20047;-37
2022/07/15 08:15:26;;;;;;;0.10;0.10;;;;;;;22.01;53.51;101939.16;5117561;28;20093;-38
2022/07/15 08:17:52;;;;;;;0.10;0.10;;;;;;;22.00;53.41;101941.13;5117650;28;20079;-38
2022/07/15 08:20:18;;;;;;;0.10;0.10;;;;;;;22.00;53.37;101940.28;5112788;28;20427;-36
2022/07/15 08:22:44;;;;;;;0.10;0.10;;;;;;;22.00;53.48;101943.88;5115623;28;20485;-40
2022/07/15 08:25:09;;;;;;;0.10;0.10;;;;;;;21.99;53.36;101936.69;5118134;28;20046;-37
2022/07/15 08:27:35;;;;;;;0.10;0.10;;;;;;;22.01;53.47;101936.41;5109517;28;20048;-39
2022/07/15 08:30:01;;;;;;;0.57;0.20;;;;;;;21.99;53.15;101942.22;5114249;27;20378;-38
2022/07/15 08:32:26;;;;;;;0.10;0.10;;;;;;;22.00;53.46;101949.44;5117292;28;20355;-38
2022/07/15 08:34:52;;;;;;;0.10;0.10;;;;;;;22.00;53.52;101943.06;5117011;28;20047;-38
2022/07/15 08:37:18;;;;;;;0.10;0.10;;;;;;;22.00;53.27;101943.88;5117979;28;20051;-37
2022/07/15 08:39:44;;;;;;;0.10;0.10;;;;;;;22.00;53.38;101943.88;5120518;28;20039;-37
2022/07/15 08:42:10;;;;;;;0.10;0.10;;;;;;;22.01;53.37;101950.25;5117214;28;20043;-38
2022/07/15 08:44:36;;;;;;;0.10;0.10;;;;;;;22.00;53.46;101952.22;5112901;28;20051;-37
2022/07/15 08:47:03;;;;;;;0.10;0.10;;;;;;;22.01;53.37;101955.81;5098920;28;20051;-39
2022/07/15 08:49:31;;;;;;;0.10;0.10;;;;;;;22.00;53.35;101959.69;5101787;28;20075;-38
2022/07/15 08:51:59;;;;;;;0.10;0.10;;;;;;;22.00;53.43;101956.94;5118994;28;20097;-38
2022/07/15 08:54:26;;;;;;;0.10;0.10;;;;;;;21.99;53.38;101956.09;5115550;28;20094;-39
2022/07/15 08:56:52;;;;;;;0.10;0.10;;;;;;;21.99;53.35;101953.31;5114747;28;20083;-38
2022/07/15 08:59:18;;;;;;;0.10;0.10;;;;;;;21.98;53.30;101948.06;5124419;28;20126;-38
2022/07/15 09:01:45;;;;;;;0.10;0.10;;;;;;;22.00;53.37;101945.84;5115309;28;20050;-37
2022/07/15 09:04:11;;;;;;;0.10;0.10;;;;;;;21.99;53.48;101947.78;5098807;28;20067;-37
2022/07/15 09:06:43;;;;;;;0.10;0.10;;;;;;;22.00;53.39;101938.34;5117757;28;20101;-39
2022/07/15 09:09:33;;;;;;;0.10;0.10;;;;;;;22.00;53.43;101940.28;5121340;28;20046;-37
2022/07/15 09:12:03;;;;;;;0.10;0.10;;;;;;;22.00;53.42;101945.84;5086640;28;20462;-37
2022/07/15 09:14:41;;;;;;;0.10;0.10;;;;;;;22.00;53.34;101934.75;5118492;28;20046;-37
2022/07/15 09:17:20;;;;;;;0.10;0.10;;;;;;;22.00;53.53;101932.78;5113510;28;20078;-37
2022/07/15 09:20:03;;;;;;;;;;;;;;;21.99;53.43;101933.91;5101042;28;20082;-38
2022/07/15 09:22:31;;;;;;;0.10;0.10;;;;;;;21.98;53.28;101937.81;5114096;28;19920;-36
2022/07/15 09:25:01;;;;;;;;;;;;;;;22.00;53.42;101937.50;5100780;28;20089;-37
2022/07/15 09:27:30;;;;;;;0.10;0.10;;;;;;;22.00;53.44;101934.75;5102705;28;20009;-37
2022/07/15 09:38:13;;;;;;;0.10;0.10;;;;;;;21.99;53.51;101928.34;5099749;28;20082;-37
2022/07/15 09:40:54;;;;;;;0.10;0.10;;;;;;;22.00;53.37;101929.19;5117013;28;20036;-39
2022/07/15 09:43:20;;;;;;;0.10;0.10;;;;;;;21.99;53.43;101933.91;5122850;28;20078;-38
2022/07/15 09:45:46;;;;;;;0.20;0.20;;;;;;;22.01;53.50;101936.41;5120207;28;20047;-38
2022/07/15 09:48:13;;;;;;;0.10;0.10;;;;;;;21.99;53.44;101936.69;5118265;28;20043;-37
2022/07/15 09:50:39;;;;;;;0.10;0.10;;;;;;;21.99;53.42;101933.91;5116305;28;20050;-38
2022/07/15 09:53:13;;;;;;;0.10;0.10;;;;;;;22.00;53.38;101929.19;5106244;28;20043;-37
2022/07/15 09:55:40;;;;;;;0.10;0.10;;;;;;;22.00;53.32;101940.28;5120504;28;20043;-36
2022/07/15 09:58:07;;;;;;;0.10;0.10;;;;;;;22.00;53.37;101938.34;5085155;28;20100;-37
2022/07/15 10:00:35;;;;;;;0.10;0.10;;;;;;;22.00;53.41;101935.56;5122648;28;20079;-36
2022/07/15 10:03:02;;;;;;;0.10;0.10;;;;;;;22.00;53.33;101930.03;5103349;28;20488;-38
2022/07/15 10:05:28;;;;;;;0.10;0.10;;;;;;;22.00;53.42;101938.34;5101591;28;20080;-38
2022/07/15 10:07:56;;;;;;;0.10;0.10;;;;;;;21.99;53.37;101933.91;5116009;28;20075;-39
2022/07/15 10:10:23;;;;;;;0.10;0.10;;;;;;;21.98;53.35;101929.47;5118528;28;20043;-37
2022/07/15 10:13:16;;;;;;;0.10;0.10;;;;;;;22.00;53.36;101930.03;5118267;28;20250;-36
2022/07/15 10:16:21;;;;;;;0.20;0.20;;;;;;;22.00;53.50;101926.41;5104967;28;20070;-36
2022/07/15 10:21:40;;;;;;;0.20;0.20;;;;;;;22.00;53.30;101927.25;5161556;27;20529;-37
2022/07/15 10:24:35;;;;;;;0.10;0.10;;;;;;;22.00;53.28;101923.66;5118224;27;20086;-38
2022/07/15 10:27:10;;;;;;;0.10;0.10;;;;;;;21.99;53.36;101928.34;5121495;27;20442;-38
2022/07/15 10:29:36;;;;;;;0.10;0.10;;;;;;;22.00;53.30;101916.16;5141639;27;20047;-38
2022/07/15 10:32:02;;;;;;;0.10;0.10;;;;;;;22.00;53.37;101920.88;5144375;27;20039;-39
2022/07/15 10:34:30;;;;;;;0.10;0.10;;;;;;;22.00;53.38;101916.16;5140112;27;20044;-37
2022/07/15 10:36:57;;;;;;;0.10;0.10;;;;;;;22.01;53.46;101916.97;5119886;27;20107;-37
2022/07/15 10:39:26;;;;;;;0.15;0.15;;;;;;;22.00;53.27;101920.88;5135459;27;20538;-40
2022/07/15 10:41:56;;;;;;;0.10;0.10;;;;;;;22.00;53.38;101921.69;5128957;27;20077;-39
2022/07/15 10:44:22;;;;;;;0.10;0.10;;;;;;;22.01;53.37;101922.53;5126389;27;20086;-38
2022/07/15 10:49:54;;;;;;;0.10;0.10;;;;;;;21.99;53.45;101913.66;5160148;27;20124;-39
2022/07/15 10:52:23;;;;;;;0.10;0.10;;;;;;;21.99;53.45;101913.66;5153383;27;20051;-38
2022/07/15 10:57:53;;;;;;;0.10;0.10;;;;;;;21.99;53.48;101905.34;5177194;27;20116;-39
2022/07/15 11:03:02;;;;;;;0.10;0.10;;;;;;;21.99;53.32;101911.72;5176109;27;20443;-38
2022/07/15 11:05:28;;;;;;;0.10;0.10;;;;;;;22.00;53.38;101904.22;5143901;27;20035;-39
2022/07/15 11:07:54;;;;;;;0.10;0.10;;;;;;;21.99;53.45;101900.63;5140354;27;20095;-38
2022/07/15 11:10:21;;;;;;;0.10;0.10;;;;;;;21.99;53.43;101889.53;5162414;27;20039;-37
2022/07/15 11:12:53;;;;;;;0.10;0.10;;;;;;;22.00;53.39;101904.22;5159716;27;20059;-37
2022/07/15 11:15:23;;;;;;;0.10;0.10;;;;;;;21.99;53.36;101897.84;5160790;27;20054;-39
2022/07/15 11:17:51;;;;;;;0.10;0.10;;;;;;;22.00;53.42;101887.59;5163732;27;20070;-37
2022/07/15 11:20:29;;;;;;;0.10;0.10;;;;;;;22.00;53.38;101879.25;5142637;27;20053;-37
2022/07/15 11:22:56;;;;;;;0.10;0.10;;;;;;;22.00;53.42;101879.25;5141889;27;20126;-37
2022/07/15 11:30:53;;;;;;;0.10;0.10;;;;;;;22.00;53.18;101862.63;5174910;27;20120;-38
2022/07/15 11:33:25;;;;;;;0.10;0.10;;;;;;;22.01;53.36;101875.38;5149290;27;20539;-39
2022/07/15 11:35:53;;;;;;;0.20;0.20;;;;;;;21.99;53.30;101864.56;5167696;27;20054;-36
2022/07/15 11:38:23;;;;;;;0.13;0.13;;;;;;;22.00;53.20;101862.63;5166400;27;20035;-38
2022/07/15 11:46:25;;;;;;;0.20;0.20;;;;;;;22.00;53.29;101863.44;5129267;27;20501;-38
2022/07/15 11:48:51;;;;;;;0.10;0.10;;;;;;;21.99;53.46;101853.47;5149317;27;20872;-38
2022/07/15 11:51:24;;;;;;;0.10;0.10;;;;;;;22.00;53.36;101857.06;5144913;27;20196;-38
2022/07/15 11:53:50;;;;;;;0.15;0.15;;;;;;;21.99;53.31;101858.19;5113147;27;20088;-38
2022/07/15 11:56:16;;;;;;;0.10;0.10;;;;;;;21.99;53.29;101850.69;5142981;27;20043;-38
2022/07/15 11:58:44;;;;;;;0.10;0.10;;;;;;;22.00;53.48;101848.75;5145573;27;20095;-38